createdAt,value
2019-05-01T00:04:45.741Z,15.30
2019-05-01T00:09:50.567Z,15.13
2019-05-01T00:14:55.383Z,18.30
2019-05-01T00:19:59.737Z,14.70
2019-05-01T00:25:04.271Z,15.40
2019-05-01T00:30:11.221Z,16.33
2019-05-01T00:35:15.775Z,16.87
2019-05-01T00:40:19.855Z,16.53
2019-05-01T00:45:24.016Z,15.60
2019-05-01T00:50:28.603Z,17.47
2019-05-01T00:55:50.899Z,15.50
2019-05-01T01:01:06.142Z,19.60
2019-05-01T01:06:11.292Z,19.20
2019-05-01T01:11:16.011Z,18.30
2019-05-01T01:16:20.618Z,17.67
2019-05-01T01:21:30.720Z,19.40
2019-05-01T01:26:35.500Z,18.10
2019-05-01T01:31:40.329Z,20.13
2019-05-01T01:36:44.963Z,17.83
2019-05-01T01:41:50.293Z,17.23
2019-05-01T01:46:56.193Z,21.40
2019-05-01T01:52:01.371Z,21.97
2019-05-01T01:57:06.076Z,21.97
2019-05-01T02:02:42.055Z,23.47
2019-05-01T02:07:46.824Z,21.20
2019-05-01T02:12:51.659Z,19.27
2019-05-01T02:17:59.831Z,24.83
2019-05-01T02:23:04.505Z,22.77
2019-05-01T02:28:34.440Z,20.40
2019-05-01T02:33:42.157Z,17.30
2019-05-01T02:38:50.808Z,23.07
2019-05-01T02:44:00.299Z,21.53
2019-05-01T02:49:09.932Z,20.30
2019-05-01T02:54:19.233Z,19.67
2019-05-01T02:59:26.892Z,19.37
2019-05-01T03:04:33.094Z,19.00
2019-05-01T03:09:38.295Z,17.73
2019-05-01T03:14:46.333Z,17.77
2019-05-01T03:20:02.863Z,20.13
2019-05-01T03:25:08.296Z,19.10
2019-05-01T03:30:14.811Z,18.97
2019-05-01T03:35:18.861Z,22.33
2019-05-01T03:40:23.386Z,19.30
2019-05-01T03:45:28.383Z,19.57
2019-05-01T03:50:32.666Z,19.53
2019-05-01T03:55:37.726Z,23.77
2019-05-01T04:01:00.942Z,23.17
2019-05-01T04:06:06.008Z,23.00
2019-05-01T04:11:11.191Z,25.63
2019-05-01T04:16:16.905Z,35.03
2019-05-01T04:21:23.739Z,48.67
2019-05-01T04:26:31.783Z,56.60
2019-05-01T04:31:44.124Z,61.23
2019-05-01T04:36:52.281Z,49.33
2019-05-01T04:41:57.154Z,52.87
2019-05-01T04:47:03.742Z,55.43
2019-05-01T04:52:07.778Z,45.67
2019-05-01T04:57:12.577Z,45.03
2019-05-01T05:02:23.494Z,36.80
2019-05-01T05:07:28.828Z,34.43
2019-05-01T05:12:47.980Z,38.17
2019-05-01T05:17:52.342Z,38.60
2019-05-01T05:22:59.876Z,38.70
2019-05-01T05:28:04.080Z,33.87
2019-05-01T05:33:18.062Z,34.57
2019-05-01T05:38:23.439Z,31.17
2019-05-01T05:43:31.091Z,33.50
2019-05-01T05:48:35.481Z,35.97
2019-05-01T05:53:44.239Z,51.13
2019-05-01T05:58:55.514Z,44.47
2019-05-01T06:04:34.865Z,42.30
2019-05-01T06:10:03.107Z,38.97
2019-05-01T06:15:36.537Z,42.33
2019-05-01T06:21:12.912Z,37.67
2019-05-01T06:26:37.403Z,38.63
2019-05-01T06:31:39.067Z,39.33
2019-05-01T06:36:49.717Z,39.20
2019-05-01T06:41:53.664Z,37.00
2019-05-01T06:47:11.844Z,39.47
2019-05-01T06:52:25.067Z,42.10
2019-05-01T06:57:28.719Z,52.33
2019-05-01T07:02:35.000Z,52.23
2019-05-01T07:07:43.019Z,55.73
2019-05-01T07:12:47.288Z,55.13
2019-05-01T07:17:52.433Z,55.27
2019-05-01T07:22:57.314Z,57.30
2019-05-01T07:28:01.906Z,54.03
2019-05-01T07:33:06.598Z,58.27
2019-05-01T07:38:11.712Z,57.70
2019-05-01T07:43:26.594Z,51.97
2019-05-01T07:48:36.022Z,58.13
2019-05-01T07:53:42.279Z,67.00
2019-05-01T07:58:51.585Z,62.17
2019-05-01T08:03:53.642Z,77.80
2019-05-01T08:08:58.384Z,68.27
2019-05-01T08:14:16.617Z,73.73
2019-05-01T08:19:47.223Z,79.57
2019-05-01T08:24:53.876Z,69.27
2019-05-01T08:30:26.462Z,74.10
2019-05-01T08:35:36.408Z,76.70
2019-05-01T08:40:40.558Z,75.43
2019-05-01T08:46:16.538Z,84.77
2019-05-01T08:51:20.764Z,76.57
2019-05-01T08:56:32.998Z,72.57
2019-05-01T09:01:39.516Z,78.53
2019-05-01T09:06:45.873Z,83.87
2019-05-01T09:11:54.647Z,93.40
2019-05-01T09:16:59.535Z,83.00
2019-05-01T09:22:04.633Z,94.93
2019-05-01T09:27:31.152Z,84.80
2019-05-01T09:32:36.335Z,89.77
2019-05-01T09:37:40.811Z,97.80
2019-05-01T09:42:45.479Z,102.83
2019-05-01T09:47:50.544Z,112.23
2019-05-01T09:53:34.213Z,99.47
2019-05-01T09:58:39.142Z,97.00
2019-05-01T10:03:44.960Z,104.73
2019-05-01T10:08:49.649Z,99.97
2019-05-01T10:13:58.449Z,90.17
2019-05-01T10:19:00.432Z,89.87
2019-05-01T10:24:05.212Z,92.37
2019-05-01T10:29:32.467Z,95.17
2019-05-01T10:34:59.693Z,98.07
2019-05-01T10:40:05.648Z,102.13
2019-05-01T10:45:10.471Z,96.87
2019-05-01T10:50:15.131Z,94.93
2019-05-01T10:55:20.270Z,93.20
2019-05-01T11:00:25.146Z,93.10
2019-05-01T11:05:29.723Z,95.13
2019-05-01T11:10:34.171Z,103.10
2019-05-01T11:15:38.742Z,96.93
2019-05-01T11:20:43.324Z,94.27
2019-05-01T11:25:47.958Z,101.50
2019-05-01T11:30:54.079Z,96.87
2019-05-01T11:36:40.713Z,93.27
2019-05-01T11:48:05.520Z,88.77
2019-05-01T11:53:10.214Z,83.83
2019-05-01T11:58:14.719Z,74.67
2019-05-01T12:03:19.421Z,74.40
2019-05-01T12:08:23.987Z,69.27
2019-05-01T12:13:28.667Z,72.43
2019-05-01T12:18:33.246Z,67.50
2019-05-01T12:23:38.056Z,64.37
2019-05-01T12:28:42.666Z,66.30
2019-05-01T12:33:50.060Z,64.20
2019-05-01T12:38:56.776Z,59.10
2019-05-01T12:44:01.660Z,56.17
2019-05-01T12:49:06.199Z,49.73
2019-05-01T12:54:54.250Z,46.17
2019-05-01T13:00:08.399Z,46.17
2019-05-01T13:05:05.844Z,44.00
2019-05-01T13:10:11.343Z,40.87
2019-05-01T13:15:19.129Z,38.50
2019-05-01T13:20:24.467Z,42.10
2019-05-01T13:25:29.303Z,44.50
2019-05-01T13:30:59.656Z,33.13
2019-05-01T13:36:04.944Z,33.83
2019-05-01T13:41:09.572Z,35.23
2019-05-01T13:46:14.211Z,32.77
2019-05-01T13:51:18.861Z,27.83
2019-05-01T13:56:24.039Z,29.80
2019-05-01T14:01:28.763Z,48.33
2019-05-01T14:06:33.454Z,32.30
2019-05-01T14:11:38.143Z,31.87
2019-05-01T14:16:42.875Z,32.40
2019-05-01T14:22:06.231Z,33.37
2019-05-01T14:27:11.041Z,36.83
2019-05-01T14:32:21.799Z,27.67
2019-05-01T14:37:29.751Z,28.93
2019-05-01T14:42:32.785Z,31.00
2019-05-01T14:47:37.322Z,46.70
2019-05-01T14:52:42.040Z,25.33
2019-05-01T14:57:46.536Z,26.17
2019-05-01T15:02:52.104Z,23.80
2019-05-01T15:07:56.843Z,25.73
2019-05-01T15:13:03.758Z,27.13
2019-05-01T15:18:30.335Z,40.00
2019-05-01T15:23:35.089Z,29.00
2019-05-01T15:28:39.887Z,24.37
2019-05-01T15:33:45.553Z,24.73
2019-05-01T15:38:51.521Z,23.07
2019-05-01T15:44:15.358Z,26.37
2019-05-01T15:49:21.732Z,25.43
2019-05-01T15:54:27.765Z,21.17
2019-05-01T15:59:33.315Z,23.30
2019-05-01T16:04:38.018Z,24.17
2019-05-01T16:09:42.731Z,25.73
2019-05-01T16:14:49.427Z,24.17
2019-05-01T16:20:00.597Z,24.80
2019-05-01T16:25:07.943Z,25.53
2019-05-01T16:30:14.495Z,28.73
2019-05-01T16:35:19.491Z,28.70
2019-05-01T16:40:44.886Z,22.97
2019-05-01T16:45:59.573Z,26.73
2019-05-01T16:51:16.952Z,24.47
2019-05-01T16:56:36.216Z,31.90
2019-05-01T17:02:12.459Z,43.60
2019-05-01T17:07:43.040Z,28.80
2019-05-01T17:12:54.099Z,31.57
2019-05-01T17:17:59.068Z,36.23
2019-05-01T17:23:05.707Z,29.73
2019-05-01T17:28:11.834Z,32.70
2019-05-01T17:33:20.643Z,33.43
2019-05-01T17:38:23.687Z,31.23
2019-05-01T17:43:31.433Z,32.87
2019-05-01T17:48:37.461Z,32.63
2019-05-01T17:53:42.404Z,27.97
2019-05-01T17:58:47.005Z,27.73
2019-05-01T18:04:11.126Z,28.20
2019-05-01T18:09:23.023Z,23.97
2019-05-01T18:20:55.682Z,23.97
2019-05-01T18:26:18.672Z,22.77
2019-05-01T18:31:35.573Z,22.67
2019-05-01T18:36:47.395Z,19.20
2019-05-01T18:42:03.403Z,21.17
2019-05-01T18:47:10.709Z,21.10
2019-05-01T18:52:29.633Z,17.83
2019-05-01T18:57:37.628Z,19.13
2019-05-01T19:02:45.014Z,19.97
2019-05-01T19:07:56.122Z,19.60
2019-05-01T19:13:07.418Z,21.07
2019-05-01T19:18:16.905Z,22.40
2019-05-01T19:23:27.904Z,23.10
2019-05-01T19:28:35.169Z,22.20
2019-05-01T19:33:41.784Z,23.80
2019-05-01T19:38:46.698Z,29.43
2019-05-01T19:43:51.275Z,28.43
2019-05-01T19:48:56.073Z,24.30
2019-05-01T19:54:01.609Z,20.50
2019-05-01T19:59:06.401Z,29.10
2019-05-01T20:04:13.076Z,23.03
2019-05-01T20:09:17.734Z,20.80
2019-05-01T20:14:22.394Z,24.23
2019-05-01T20:19:27.632Z,25.37
2019-05-01T20:24:32.414Z,36.63
2019-05-01T20:29:37.136Z,30.53
2019-05-01T20:34:47.996Z,26.77
2019-05-01T20:39:51.560Z,29.83
2019-05-01T20:45:04.331Z,39.83
2019-05-01T20:50:02.543Z,29.03
2019-05-01T20:55:07.599Z,35.47
2019-05-01T21:00:16.758Z,30.80
2019-05-01T21:05:28.314Z,29.17
2019-05-01T21:10:50.261Z,38.47
2019-05-01T21:15:48.235Z,42.93
2019-05-01T21:20:54.166Z,36.30
2019-05-01T21:25:59.051Z,33.80
2019-05-01T21:31:16.032Z,29.27
2019-05-01T21:36:24.038Z,30.53
2019-05-01T21:41:28.650Z,29.13
2019-05-01T21:46:34.105Z,31.00
2019-05-01T21:51:42.386Z,28.80
2019-05-01T21:56:45.326Z,25.00
2019-05-01T22:01:53.313Z,25.83
2019-05-01T22:06:58.242Z,24.27
2019-05-01T22:12:02.847Z,17.93
2019-05-01T22:17:17.536Z,17.20
2019-05-01T22:22:31.299Z,17.53
2019-05-01T22:27:43.653Z,17.10
2019-05-01T22:32:51.966Z,17.37
2019-05-01T22:37:57.176Z,19.23
2019-05-01T22:43:02.040Z,20.90
2019-05-01T22:48:06.945Z,17.77
2019-05-01T22:53:13.038Z,18.80
2019-05-01T22:58:18.157Z,16.17
2019-05-01T23:03:44.612Z,19.17
2019-05-01T23:08:49.439Z,18.33
2019-05-01T23:13:54.218Z,15.87
2019-05-01T23:19:00.495Z,19.10
2019-05-01T23:24:06.474Z,19.90
2019-05-01T23:29:11.075Z,16.90
2019-05-01T23:34:15.698Z,17.47
2019-05-01T23:39:20.122Z,17.37
2019-05-01T23:44:25.305Z,16.70
2019-05-01T23:49:30.699Z,17.07
2019-05-01T23:54:35.331Z,17.80
2019-05-01T23:59:39.909Z,16.07
